createdAt,value
2023-03-16T00:02:10.665Z,17.80
2023-03-16T00:04:38.198Z,17.80
2023-03-16T00:07:09.479Z,17.70
2023-03-16T00:09:41.045Z,17.70
2023-03-16T00:12:17.652Z,17.70
2023-03-16T00:14:46.116Z,17.70
2023-03-16T00:17:20.208Z,17.70
2023-03-16T00:19:55.602Z,17.70
2023-03-16T00:22:25.300Z,17.60
2023-03-16T00:24:52.826Z,17.60
2023-03-16T00:27:23.070Z,17.60
2023-03-16T00:29:55.936Z,17.60
2023-03-16T00:32:28.923Z,17.60
2023-03-16T00:34:56.163Z,17.50
2023-03-16T00:37:24.782Z,17.50
2023-03-16T00:39:56.023Z,17.50
2023-03-16T00:42:28.379Z,17.50
2023-03-16T00:44:57.750Z,17.50
2023-03-16T00:47:30.357Z,17.40
2023-03-16T00:49:57.585Z,17.40
2023-03-16T00:52:25.183Z,17.40
2023-03-16T00:54:54.646Z,17.30
2023-03-16T00:57:24.673Z,17.30
2023-03-16T00:59:52.415Z,17.30
2023-03-16T01:02:23.362Z,17.30
2023-03-16T01:04:51.761Z,17.20
2023-03-16T01:07:18.990Z,17.20
2023-03-16T01:09:45.786Z,17.10
2023-03-16T01:12:15.399Z,17.20
2023-03-16T01:14:45.799Z,17.10
2023-03-16T01:17:14.586Z,17.10
2023-03-16T01:19:43.246Z,17.20
2023-03-16T01:22:11.698Z,17.10
2023-03-16T01:24:39.625Z,17.10
2023-03-16T01:27:08.526Z,17.10
2023-03-16T01:29:36.369Z,17.10
2023-03-16T01:32:04.562Z,17.00
2023-03-16T01:34:31.955Z,17.00
2023-03-16T01:36:59.837Z,17.00
2023-03-16T01:39:47.970Z,17.00
2023-03-16T01:42:15.874Z,17.00
2023-03-16T01:45:05.645Z,16.90
2023-03-16T01:47:39.529Z,16.90
2023-03-16T01:50:12.914Z,16.90
2023-03-16T01:52:42.236Z,16.90
2023-03-16T01:55:13.384Z,16.80
2023-03-16T01:57:43.459Z,16.80
2023-03-16T02:00:23.694Z,16.80
2023-03-16T02:03:13.695Z,16.80
2023-03-16T02:06:04.780Z,16.80
2023-03-16T02:08:33.743Z,16.80
2023-03-16T02:11:01.154Z,16.70
2023-03-16T02:13:40.375Z,16.70
2023-03-16T02:16:08.956Z,16.70
2023-03-16T02:18:36.232Z,16.70
2023-03-16T02:21:30.247Z,16.70
2023-03-16T02:23:57.409Z,16.70
2023-03-16T02:26:44.803Z,16.70
2023-03-16T02:29:22.907Z,16.60
2023-03-16T02:31:54.316Z,16.60
2023-03-16T02:34:21.596Z,16.60
2023-03-16T02:36:52.161Z,16.60
2023-03-16T02:39:23.498Z,16.50
2023-03-16T02:41:50.913Z,16.50
2023-03-16T02:44:27.781Z,16.50
2023-03-16T02:47:03.237Z,16.50
2023-03-16T02:49:38.185Z,16.50
2023-03-16T02:52:06.415Z,16.40
2023-03-16T02:54:33.381Z,16.40
2023-03-16T02:57:00.447Z,16.40
2023-03-16T02:59:28.465Z,16.40
2023-03-16T03:01:55.421Z,16.40
2023-03-16T03:04:24.473Z,16.30
2023-03-16T03:06:51.788Z,16.30
2023-03-16T03:09:19.707Z,16.30
2023-03-16T03:11:48.924Z,16.30
2023-03-16T03:14:16.640Z,16.30
2023-03-16T03:16:46.883Z,16.30
2023-03-16T03:19:15.566Z,16.30
2023-03-16T03:21:42.360Z,16.30
2023-03-16T03:24:10.075Z,16.30
2023-03-16T03:26:40.507Z,16.30
2023-03-16T03:29:13.094Z,16.30
2023-03-16T03:31:40.184Z,16.20
2023-03-16T03:34:07.260Z,16.20
2023-03-16T03:36:35.519Z,16.20
2023-03-16T03:39:05.162Z,16.20
2023-03-16T03:41:33.716Z,16.20
2023-03-16T03:44:02.449Z,16.20
2023-03-16T03:46:29.296Z,16.20
2023-03-16T03:49:01.392Z,16.20
2023-03-16T03:51:28.577Z,16.10
2023-03-16T03:54:03.160Z,16.10
2023-03-16T03:56:53.099Z,16.10
2023-03-16T03:59:20.633Z,16.10
2023-03-16T04:02:05.965Z,16.10
2023-03-16T04:04:49.747Z,16.00
2023-03-16T04:07:16.875Z,16.00
2023-03-16T04:09:44.845Z,16.00
2023-03-16T04:12:21.467Z,16.00
2023-03-16T04:14:48.426Z,16.00
2023-03-16T04:17:17.015Z,16.00
2023-03-16T04:19:44.976Z,16.00
2023-03-16T04:22:14.769Z,16.00
2023-03-16T04:24:43.228Z,16.00
2023-03-16T04:27:13.926Z,16.00
2023-03-16T04:29:40.647Z,15.90
2023-03-16T04:32:07.987Z,15.90
2023-03-16T04:34:35.909Z,15.90
2023-03-16T04:37:05.160Z,15.90
2023-03-16T04:39:34.241Z,15.90
2023-03-16T04:42:01.686Z,15.80
2023-03-16T04:44:28.549Z,15.90
2023-03-16T04:46:56.105Z,15.80
2023-03-16T04:49:25.142Z,15.80
2023-03-16T04:51:51.868Z,15.80
2023-03-16T04:54:20.301Z,15.80
2023-03-16T04:56:48.274Z,15.80
2023-03-16T04:59:40.508Z,15.70
2023-03-16T05:02:19.932Z,15.70
2023-03-16T05:04:48.438Z,15.70
2023-03-16T05:07:16.007Z,15.70
2023-03-16T05:09:48.154Z,15.70
2023-03-16T05:12:14.997Z,15.70
2023-03-16T05:14:43.850Z,15.60
2023-03-16T05:17:33.966Z,15.60
2023-03-16T05:20:01.127Z,15.60
2023-03-16T05:22:28.525Z,15.60
2023-03-16T05:25:14.910Z,15.60
2023-03-16T05:27:52.295Z,15.60
2023-03-16T05:30:26.987Z,15.60
2023-03-16T05:32:57.945Z,15.60
2023-03-16T05:35:25.929Z,15.60
2023-03-16T05:37:57.176Z,15.60
2023-03-16T05:40:24.382Z,15.50
2023-03-16T05:43:00.860Z,15.60
2023-03-16T05:45:29.160Z,15.60
2023-03-16T05:48:06.685Z,15.60
2023-03-16T05:50:37.694Z,15.50
2023-03-16T05:53:04.435Z,15.60
2023-03-16T05:55:31.577Z,15.60
2023-03-16T05:58:03.331Z,15.50
2023-03-16T06:00:31.857Z,15.50
2023-03-16T06:03:16.924Z,15.50
2023-03-16T06:05:44.086Z,15.50
2023-03-16T06:08:11.598Z,15.50
2023-03-16T06:10:41.820Z,15.50
2023-03-16T06:13:08.593Z,15.50
2023-03-16T06:15:36.137Z,15.50
2023-03-16T06:18:03.281Z,15.50
2023-03-16T06:20:30.371Z,15.50
2023-03-16T06:22:57.696Z,15.40
2023-03-16T06:25:26.525Z,15.40
2023-03-16T06:27:54.081Z,15.40
2023-03-16T06:30:21.311Z,15.40
2023-03-16T06:32:48.466Z,15.40
2023-03-16T06:35:15.269Z,15.40
2023-03-16T06:37:48.836Z,15.40
2023-03-16T06:40:44.552Z,15.40
2023-03-16T06:43:11.361Z,15.30
2023-03-16T06:45:38.223Z,15.30
2023-03-16T06:48:06.948Z,15.30
2023-03-16T06:50:33.970Z,15.30
2023-03-16T06:53:00.978Z,15.30
2023-03-16T06:55:29.808Z,15.30
2023-03-16T06:57:56.563Z,15.30
2023-03-16T07:00:24.458Z,15.30
2023-03-16T07:02:51.247Z,15.30
2023-03-16T07:05:18.330Z,15.30
2023-03-16T07:07:46.048Z,15.20
2023-03-16T07:10:17.309Z,15.20
2023-03-16T07:12:44.957Z,15.20
2023-03-16T07:15:13.047Z,15.20
2023-03-16T07:17:42.606Z,15.20
2023-03-16T07:20:11.377Z,15.20
2023-03-16T07:22:39.978Z,15.20
2023-03-16T07:25:11.283Z,15.20
2023-03-16T07:27:45.410Z,15.20
2023-03-16T07:30:14.379Z,15.20
2023-03-16T07:32:43.547Z,15.20
2023-03-16T07:35:11.672Z,15.20
2023-03-16T07:37:39.316Z,15.20
2023-03-16T07:40:09.285Z,15.20
2023-03-16T07:42:37.638Z,15.10
2023-03-16T07:45:24.932Z,15.10
2023-03-16T07:47:51.677Z,15.10
2023-03-16T07:50:33.419Z,15.10
2023-03-16T07:53:00.543Z,15.10
2023-03-16T07:55:27.657Z,15.10
2023-03-16T07:57:55.281Z,15.10
2023-03-16T08:00:29.037Z,15.10
2023-03-16T08:02:57.549Z,15.10
2023-03-16T08:05:27.228Z,15.10
2023-03-16T08:07:58.961Z,15.00
2023-03-16T08:10:28.751Z,15.00
2023-03-16T08:13:08.190Z,15.00
2023-03-16T08:15:36.988Z,15.00
2023-03-16T08:18:10.283Z,15.00
2023-03-16T08:20:37.251Z,15.00
2023-03-16T08:23:04.166Z,15.00
2023-03-16T08:25:37.984Z,15.00
2023-03-16T08:28:12.599Z,15.00
2023-03-16T08:30:50.835Z,15.00
2023-03-16T08:33:25.990Z,15.00
2023-03-16T08:35:53.008Z,14.90
2023-03-16T08:38:20.194Z,14.90
2023-03-16T08:40:51.058Z,14.90
2023-03-16T08:43:20.134Z,14.90
2023-03-16T08:45:48.535Z,14.90
2023-03-16T08:48:18.307Z,14.90
2023-03-16T08:50:48.333Z,14.90
2023-03-16T08:53:15.225Z,14.90
2023-03-16T08:55:42.040Z,14.90
2023-03-16T08:58:10.423Z,14.90
2023-03-16T09:00:38.310Z,14.90
2023-03-16T09:03:05.576Z,14.90
2023-03-16T09:05:32.919Z,14.90
2023-03-16T09:08:01.447Z,14.90
2023-03-16T09:10:28.977Z,14.90
2023-03-16T09:12:56.706Z,14.80
2023-03-16T09:15:23.463Z,14.90
2023-03-16T09:17:50.521Z,14.80
2023-03-16T09:20:34.975Z,14.80
2023-03-16T09:23:01.977Z,14.80
2023-03-16T09:25:28.967Z,14.80
2023-03-16T09:27:55.944Z,14.80
2023-03-16T09:30:22.748Z,14.80
2023-03-16T09:32:50.424Z,14.80
2023-03-16T09:35:17.482Z,14.80
2023-03-16T09:38:01.205Z,14.80
2023-03-16T09:40:32.212Z,14.80
2023-03-16T09:43:20.642Z,14.80
2023-03-16T09:46:09.189Z,14.80
2023-03-16T09:48:38.133Z,14.80
2023-03-16T09:51:27.630Z,14.80
2023-03-16T09:53:59.326Z,14.80
2023-03-16T09:56:33.519Z,14.80
2023-03-16T09:59:00.524Z,14.80
2023-03-16T10:01:58.203Z,14.80
2023-03-16T10:05:12.273Z,14.80
2023-03-16T10:08:04.379Z,14.80
2023-03-16T10:10:40.356Z,14.80
2023-03-16T10:13:38.579Z,14.80
2023-03-16T10:16:16.633Z,14.80
2023-03-16T10:18:59.141Z,14.80
2023-03-16T10:21:39.496Z,14.80
2023-03-16T10:24:19.169Z,14.80
2023-03-16T10:26:55.572Z,14.80
2023-03-16T10:29:22.414Z,14.80
2023-03-16T10:31:49.253Z,14.80
2023-03-16T10:34:16.015Z,14.80
2023-03-16T10:36:45.250Z,14.80
2023-03-16T10:39:14.411Z,14.80
2023-03-16T10:41:45.337Z,14.80
2023-03-16T10:44:32.044Z,14.80
2023-03-16T10:47:08.104Z,14.80
2023-03-16T10:49:44.347Z,14.80
2023-03-16T10:52:23.762Z,14.80
2023-03-16T10:55:00.691Z,14.80
2023-03-16T10:57:36.160Z,14.80
2023-03-16T11:00:10.289Z,14.80
2023-03-16T11:02:36.948Z,14.80
2023-03-16T11:05:18.561Z,14.80
2023-03-16T11:07:59.361Z,14.80
2023-03-16T11:10:40.462Z,14.80
2023-03-16T11:13:14.690Z,14.80
2023-03-16T11:16:06.369Z,14.80
2023-03-16T11:18:37.281Z,14.80
2023-03-16T11:21:18.193Z,14.80
2023-03-16T11:23:56.821Z,14.80
2023-03-16T11:26:32.289Z,14.80
2023-03-16T11:29:24.823Z,14.80
2023-03-16T11:32:03.934Z,14.80
2023-03-16T11:34:32.569Z,14.80
2023-03-16T11:37:23.565Z,14.80
2023-03-16T11:40:30.246Z,14.80
2023-03-16T11:43:15.935Z,14.80
2023-03-16T11:46:16.827Z,14.80
2023-03-16T11:49:03.809Z,14.80
2023-03-16T11:52:08.285Z,14.80
2023-03-16T11:54:48.531Z,14.80
2023-03-16T11:57:42.704Z,14.80
2023-03-16T12:00:36.073Z,14.70
2023-03-16T12:03:27.509Z,14.80
2023-03-16T12:06:23.973Z,14.80
2023-03-16T12:09:28.739Z,14.80
2023-03-16T12:12:17.241Z,14.80
2023-03-16T12:15:08.783Z,14.80
2023-03-16T12:17:37.757Z,14.80
2023-03-16T12:20:36.875Z,14.80
2023-03-16T12:23:13.397Z,14.80
2023-03-16T12:25:45.956Z,14.80
2023-03-16T12:28:24.344Z,14.80
2023-03-16T12:31:00.380Z,14.80
2023-03-16T12:33:55.277Z,14.80
2023-03-16T12:36:43.575Z,14.80
2023-03-16T12:39:39.994Z,14.80
2023-03-16T12:42:21.567Z,14.80
2023-03-16T12:45:08.662Z,14.80
2023-03-16T12:48:00.989Z,14.80
2023-03-16T12:50:27.827Z,14.80
2023-03-16T12:52:54.879Z,14.80
2023-03-16T12:55:28.077Z,14.80
2023-03-16T12:58:02.944Z,14.80
2023-03-16T13:00:35.862Z,14.80
2023-03-16T13:03:04.261Z,14.80
2023-03-16T13:05:38.646Z,14.80
2023-03-16T13:08:12.025Z,14.80
2023-03-16T13:10:39.043Z,14.80
2023-03-16T13:13:14.999Z,14.80
2023-03-16T13:15:49.603Z,14.80
2023-03-16T13:18:16.927Z,14.80
2023-03-16T13:20:58.114Z,14.80
2023-03-16T13:23:27.872Z,14.80
2023-03-16T13:26:01.007Z,14.80
2023-03-16T13:28:35.146Z,14.80
2023-03-16T13:31:02.863Z,14.80
2023-03-16T13:33:37.294Z,14.80
2023-03-16T13:36:06.274Z,14.80
2023-03-16T13:38:33.130Z,14.80
2023-03-16T13:41:06.021Z,14.80
2023-03-16T13:43:37.043Z,14.80
2023-03-16T13:46:27.843Z,14.80
2023-03-16T13:48:58.301Z,14.80
2023-03-16T13:51:25.101Z,14.80
2023-03-16T13:53:53.476Z,14.80
2023-03-16T13:56:26.824Z,14.80
2023-03-16T13:58:54.023Z,14.80
2023-03-16T14:01:32.063Z,14.80
2023-03-16T14:04:08.320Z,14.80
2023-03-16T14:06:35.762Z,14.80
2023-03-16T14:09:06.199Z,14.80
2023-03-16T14:11:33.105Z,14.80
2023-03-16T14:14:00.972Z,14.80
2023-03-16T14:16:31.975Z,14.80
2023-03-16T14:19:03.287Z,14.80
2023-03-16T14:21:34.147Z,14.80
2023-03-16T14:24:06.970Z,14.80
2023-03-16T14:26:46.250Z,14.80
2023-03-16T14:29:30.189Z,14.80
2023-03-16T14:31:57.989Z,14.80
2023-03-16T14:34:30.603Z,14.80
2023-03-16T14:37:15.768Z,14.80
2023-03-16T14:39:43.530Z,14.80
2023-03-16T14:42:27.510Z,14.80
2023-03-16T14:44:54.653Z,14.80
2023-03-16T14:47:33.367Z,14.80
2023-03-16T14:50:06.786Z,14.80
2023-03-16T14:52:34.731Z,14.80
2023-03-16T14:55:09.677Z,14.80
2023-03-16T14:57:36.392Z,14.80
2023-03-16T15:00:05.576Z,14.80
2023-03-16T15:02:34.093Z,14.80
2023-03-16T15:05:02.124Z,14.80
2023-03-16T15:07:32.523Z,14.80
2023-03-16T15:10:15.211Z,14.80
2023-03-16T15:12:50.326Z,14.80
2023-03-16T15:15:19.744Z,14.80
2023-03-16T15:17:46.938Z,14.80
2023-03-16T15:20:16.509Z,14.80
2023-03-16T15:22:44.362Z,14.80
2023-03-16T15:25:22.216Z,14.80
2023-03-16T15:27:49.578Z,14.80
2023-03-16T15:30:28.937Z,14.80
2023-03-16T15:32:56.570Z,14.80
2023-03-16T15:35:23.332Z,14.80
2023-03-16T15:37:50.090Z,14.80
2023-03-16T15:40:23.428Z,14.80
2023-03-16T15:42:50.405Z,14.80
2023-03-16T15:45:20.667Z,14.80
2023-03-16T15:47:48.789Z,14.80
2023-03-16T15:50:17.980Z,14.80
2023-03-16T15:52:49.534Z,14.80
2023-03-16T15:55:38.375Z,14.80
2023-03-16T15:58:06.356Z,14.80
2023-03-16T16:00:35.806Z,14.80
2023-03-16T16:03:04.657Z,14.80
2023-03-16T16:05:32.420Z,14.80
2023-03-16T16:08:00.064Z,14.80
2023-03-16T16:10:29.005Z,14.80
2023-03-16T16:12:57.011Z,14.80
2023-03-16T16:15:30.141Z,14.80
2023-03-16T16:18:19.756Z,14.90
2023-03-16T16:20:44.805Z,14.80
2023-03-16T16:23:11.594Z,14.90
2023-03-16T16:25:41.853Z,14.90
2023-03-16T16:28:16.380Z,14.90
2023-03-16T16:30:43.947Z,14.90
2023-03-16T16:33:25.755Z,14.90
2023-03-16T16:35:54.706Z,14.90
2023-03-16T16:38:22.400Z,14.90
2023-03-16T16:40:50.981Z,14.90
2023-03-16T16:43:32.436Z,14.80
2023-03-16T16:46:06.059Z,14.90
2023-03-16T16:48:42.404Z,14.90
2023-03-16T16:51:21.577Z,14.90
2023-03-16T16:53:49.051Z,14.90
2023-03-16T16:56:18.524Z,14.90
2023-03-16T16:58:46.468Z,14.90
2023-03-16T17:01:15.786Z,14.90
2023-03-16T17:03:42.728Z,14.90
2023-03-16T17:06:16.939Z,14.90
2023-03-16T17:08:45.613Z,14.90
2023-03-16T17:11:30.867Z,14.90
2023-03-16T17:14:03.218Z,14.90
2023-03-16T17:16:32.087Z,14.90
2023-03-16T17:18:59.169Z,14.90
2023-03-16T17:21:28.402Z,14.90
2023-03-16T17:23:56.809Z,14.90
2023-03-16T17:26:27.933Z,14.90
2023-03-16T17:29:06.308Z,14.90
2023-03-16T17:31:39.399Z,14.90
2023-03-16T17:34:21.315Z,14.90
2023-03-16T17:36:48.675Z,14.90
2023-03-16T17:39:24.000Z,14.90
2023-03-16T17:42:03.913Z,14.90
2023-03-16T17:44:34.056Z,14.90
2023-03-16T17:47:01.040Z,15.00
2023-03-16T17:49:28.619Z,15.00
2023-03-16T17:51:55.933Z,15.00
2023-03-16T17:54:22.791Z,15.00
2023-03-16T17:56:52.007Z,15.00
2023-03-16T17:59:21.077Z,15.00
2023-03-16T18:01:48.127Z,15.00
2023-03-16T18:04:23.948Z,15.00
2023-03-16T18:06:51.407Z,15.00
2023-03-16T18:09:20.185Z,15.00
2023-03-16T18:11:49.864Z,15.10
2023-03-16T18:14:25.410Z,15.10
2023-03-16T18:16:54.620Z,15.10
2023-03-16T18:19:25.251Z,15.10
2023-03-16T18:21:53.600Z,15.10
2023-03-16T18:24:22.261Z,15.10
2023-03-16T18:26:48.980Z,15.10
2023-03-16T18:29:15.741Z,15.10
2023-03-16T18:31:42.804Z,15.10
2023-03-16T18:34:33.601Z,15.10
2023-03-16T18:37:06.023Z,15.10
2023-03-16T18:39:33.328Z,15.10
2023-03-16T18:42:02.945Z,15.10
2023-03-16T18:44:30.432Z,15.10
2023-03-16T18:47:02.876Z,15.10
2023-03-16T18:49:35.034Z,15.10
2023-03-16T18:52:01.969Z,15.10
2023-03-16T18:54:31.208Z,15.10
2023-03-16T18:56:58.935Z,15.10
2023-03-16T18:59:26.576Z,15.10
2023-03-16T19:01:53.672Z,15.10
2023-03-16T19:04:23.854Z,15.20
2023-03-16T19:06:53.508Z,15.20
2023-03-16T19:09:26.516Z,15.30
2023-03-16T19:11:53.587Z,15.50
2023-03-16T19:14:23.513Z,15.70
2023-03-16T19:16:51.840Z,15.90
2023-03-16T19:19:22.639Z,16.20
2023-03-16T19:21:52.632Z,16.50
2023-03-16T19:24:26.660Z,16.80
2023-03-16T19:26:54.379Z,17.10
2023-03-16T19:29:39.085Z,17.40
2023-03-16T19:32:06.051Z,17.80
2023-03-16T19:34:32.812Z,18.00
2023-03-16T19:36:59.521Z,18.30
2023-03-16T19:39:26.992Z,18.50
2023-03-16T19:41:57.915Z,18.90
2023-03-16T19:44:27.226Z,19.10
2023-03-16T19:46:55.199Z,19.30
2023-03-16T19:49:24.440Z,19.50
2023-03-16T19:51:53.140Z,19.70
2023-03-16T19:54:25.562Z,19.90
2023-03-16T19:56:53.458Z,20.10
2023-03-16T19:59:20.996Z,20.20
2023-03-16T20:01:48.191Z,20.20
2023-03-16T20:04:26.125Z,20.40
2023-03-16T20:06:53.893Z,20.50
2023-03-16T20:09:22.036Z,20.50
2023-03-16T20:11:49.454Z,20.60
2023-03-16T20:14:23.704Z,20.60
2023-03-16T20:16:51.062Z,20.70
2023-03-16T20:19:17.802Z,20.70
2023-03-16T20:21:44.814Z,20.70
2023-03-16T20:24:16.403Z,20.70
2023-03-16T20:26:44.556Z,20.80
2023-03-16T20:29:31.124Z,20.80
2023-03-16T20:31:59.091Z,20.80
2023-03-16T20:34:28.722Z,20.80
2023-03-16T20:36:56.812Z,20.80
2023-03-16T20:39:24.016Z,20.70
2023-03-16T20:41:51.300Z,20.70
2023-03-16T20:44:20.121Z,20.80
2023-03-16T20:46:47.579Z,20.70
2023-03-16T20:49:23.595Z,20.70
2023-03-16T20:51:50.723Z,20.70
2023-03-16T20:54:17.709Z,20.70
2023-03-16T20:56:44.868Z,20.60
2023-03-16T20:59:19.908Z,20.60
2023-03-16T21:01:47.444Z,20.60
2023-03-16T21:04:27.022Z,20.50
2023-03-16T21:06:53.945Z,20.50
2023-03-16T21:09:21.229Z,20.50
2023-03-16T21:11:48.663Z,20.40
2023-03-16T21:14:18.615Z,20.40
2023-03-16T21:16:45.690Z,20.40
2023-03-16T21:19:20.929Z,20.40
2023-03-16T21:21:47.676Z,20.30
2023-03-16T21:24:14.502Z,20.30
2023-03-16T21:26:42.816Z,20.30
2023-03-16T21:29:24.161Z,20.20
2023-03-16T21:31:51.640Z,20.20
2023-03-16T21:34:24.160Z,20.10
2023-03-16T21:36:51.080Z,20.00
2023-03-16T21:39:22.314Z,20.00
2023-03-16T21:41:50.622Z,20.00
2023-03-16T21:44:18.385Z,19.90
2023-03-16T21:46:47.150Z,19.90
2023-03-16T21:49:15.710Z,19.80
2023-03-16T21:51:43.199Z,19.80
2023-03-16T21:54:14.749Z,19.80
2023-03-16T21:56:42.334Z,19.70
2023-03-16T21:59:09.588Z,19.70
2023-03-16T22:01:42.812Z,19.60
2023-03-16T22:04:17.685Z,19.60
2023-03-16T22:06:45.885Z,19.50
2023-03-16T22:09:22.662Z,19.40
2023-03-16T22:11:49.670Z,19.40
2023-03-16T22:14:16.416Z,19.40
2023-03-16T22:16:43.403Z,19.30
2023-03-16T22:19:18.077Z,19.20
2023-03-16T22:21:46.487Z,19.20
2023-03-16T22:24:20.389Z,19.20
2023-03-16T22:26:48.837Z,19.10
2023-03-16T22:29:25.172Z,19.10
2023-03-16T22:31:55.849Z,19.00
2023-03-16T22:34:44.930Z,18.90
2023-03-16T22:37:15.632Z,18.90
2023-03-16T22:39:42.736Z,18.90
2023-03-16T22:42:27.455Z,18.80
2023-03-16T22:44:57.521Z,18.80
2023-03-16T22:47:32.241Z,18.70
2023-03-16T22:49:59.455Z,18.70
2023-03-16T22:52:30.900Z,18.60
2023-03-16T22:55:00.577Z,18.60
2023-03-16T22:57:28.556Z,18.50
2023-03-16T22:59:55.667Z,18.50
2023-03-16T23:02:26.030Z,18.50
2023-03-16T23:04:53.054Z,18.50
2023-03-16T23:07:20.154Z,18.40
2023-03-16T23:09:48.429Z,18.40
2023-03-16T23:12:19.589Z,18.30
2023-03-16T23:14:46.362Z,18.30
2023-03-16T23:17:19.058Z,18.30
2023-03-16T23:19:47.933Z,18.20
2023-03-16T23:22:15.408Z,18.20
2023-03-16T23:24:43.081Z,18.10
2023-03-16T23:27:22.324Z,18.20
2023-03-16T23:29:49.351Z,18.10
2023-03-16T23:32:18.894Z,18.10
2023-03-16T23:34:46.031Z,18.10
2023-03-16T23:37:12.791Z,18.10
2023-03-16T23:39:39.851Z,18.00
2023-03-16T23:42:07.153Z,18.00
2023-03-16T23:44:33.933Z,18.00
2023-03-16T23:47:01.282Z,17.90
2023-03-16T23:49:32.551Z,17.90
2023-03-16T23:52:01.349Z,17.90
2023-03-16T23:54:30.695Z,17.80
2023-03-16T23:56:57.902Z,17.80
2023-03-16T23:59:25.722Z,17.80
